Time;durP1;ratioP1;P1;durP2;ratioP2;P2;SDS_P1;SDS_P2;PMS_P1;PMS_P2;Temp;Humidity;BMP_temperature;BMP_pressure;BME280_temperature;BME280_humidity;BME280_pressure;Samples;Min_cycle;Max_cycle;Signal;HPM_P1;HPM_P2
2021/10/04 00:00:12;;;;;;;15.55;13.90;;;14.60;99.90;;;;;;4925780;28;20144;-84
2021/10/04 00:02:39;;;;;;;24.07;14.63;;;14.60;99.90;;;;;;4926320;28;20062;-85
2021/10/04 00:05:28;;;;;;;15.65;13.35;;;14.60;99.90;;;;;;4926049;28;20065;-84
2021/10/04 00:08:02;;;;;;;15.88;13.68;;;14.60;99.90;;;;;;4926751;28;20484;-85
2021/10/04 00:10:29;;;;;;;17.30;13.88;;;14.60;99.90;;;;;;4925898;28;20053;-84
2021/10/04 00:12:57;;;;;;;16.50;13.27;;;14.60;99.90;;;;;;4941297;28;20512;-85
2021/10/04 00:15:25;;;;;;;21.20;14.93;;;14.60;99.90;;;;;;4924040;28;20051;-85
2021/10/04 00:17:52;;;;;;;17.92;14.43;;;14.50;99.90;;;;;;4927136;28;20050;-85
2021/10/04 00:20:19;;;;;;;14.68;12.88;;;14.60;99.90;;;;;;4941933;28;20074;-85
2021/10/04 00:22:47;;;;;;;15.15;13.60;;;14.60;99.90;;;;;;4926582;28;20570;-85
2021/10/04 00:25:14;;;;;;;17.20;13.40;;;14.60;99.90;;;;;;4924487;28;20078;-85
2021/10/04 00:27:41;;;;;;;19.40;15.90;;;14.60;99.90;;;;;;4944125;28;20055;-84
2021/10/04 00:30:14;;;;;;;19.98;14.00;;;14.60;99.90;;;;;;4942708;28;20051;-84
2021/10/04 00:32:44;;;;;;;18.60;15.15;;;14.50;99.90;;;;;;4926874;28;20082;-84
2021/10/04 00:35:13;;;;;;;20.17;14.35;;;14.60;99.90;;;;;;4941396;28;20508;-84
2021/10/04 00:37:41;;;;;;;16.92;14.80;;;14.60;99.90;;;;;;4943341;28;20046;-86
2021/10/04 00:40:13;;;;;;;;;;;14.50;99.90;;;;;;4943894;28;20039;-85
2021/10/04 00:42:41;;;;;;;20.17;15.15;;;14.50;99.90;;;;;;4941985;28;19993;-86
2021/10/04 00:45:14;;;;;;;24.00;15.32;;;14.50;99.90;;;;;;4919760;28;20051;-87
2021/10/04 00:47:45;;;;;;;17.45;15.48;;;14.50;99.90;;;;;;4884768;28;20051;-86
2021/10/04 00:50:17;;;;;;;18.13;16.08;;;14.50;99.90;;;;;;4933452;28;20077;-87
2021/10/04 00:52:44;;;;;;;17.33;14.27;;;14.50;99.90;;;;;;4942740;28;20066;-85
2021/10/04 00:55:14;;;;;;;15.52;13.95;;;14.50;99.90;;;;;;4932238;28;20054;-85
2021/10/04 00:57:42;;;;;;;22.92;16.98;;;14.50;99.90;;;;;;4925387;28;20055;-85
2021/10/04 01:00:13;;;;;;;17.02;15.15;;;14.50;99.90;;;;;;4933736;28;20050;-85
2021/10/04 01:02:40;;;;;;;19.98;14.60;;;14.50;99.90;;;;;;4942854;28;20046;-85
2021/10/04 01:05:11;;;;;;;19.67;15.38;;;14.50;99.90;;;;;;4941423;28;20039;-85
2021/10/04 01:07:39;;;;;;;19.73;13.57;;;14.50;99.90;;;;;;4940911;28;20047;-85
2021/10/04 01:10:17;;;;;;;19.70;14.20;;;14.40;99.90;;;;;;4943453;28;20109;-84
2021/10/04 01:12:47;;;;;;;16.85;13.93;;;14.40;99.90;;;;;;4933133;28;20056;-84
2021/10/04 01:15:17;;;;;;;24.10;15.07;;;14.40;99.90;;;;;;4923906;28;20050;-84
2021/10/04 01:17:44;;;;;;;19.23;15.70;;;14.40;99.90;;;;;;4925717;28;20054;-84
2021/10/04 01:20:31;;;;;;;18.67;13.82;;;14.40;99.90;;;;;;4925738;28;20943;-84
2021/10/04 01:23:01;;;;;;;17.95;14.10;;;14.40;99.90;;;;;;4916706;28;20047;-85
2021/10/04 01:25:30;;;;;;;16.10;14.13;;;14.40;99.90;;;;;;4932983;28;20134;-84
2021/10/04 01:27:57;;;;;;;17.75;13.63;;;14.40;99.90;;;;;;4925679;28;20105;-85
2021/10/04 01:30:27;;;;;;;17.25;14.60;;;14.40;99.90;;;;;;4942278;28;20047;-85
2021/10/04 01:32:55;;;;;;;24.02;14.95;;;14.40;99.90;;;;;;4924726;28;20105;-85
2021/10/04 01:35:23;;;;;;;17.05;14.23;;;14.40;99.90;;;;;;4928743;28;20065;-85
2021/10/04 01:37:51;;;;;;;16.52;14.80;;;14.40;99.90;;;;;;4924928;28;20047;-86
2021/10/04 01:40:18;;;;;;;15.82;13.43;;;14.30;99.90;;;;;;4942875;28;20054;-84
2021/10/04 01:42:45;;;;;;;15.40;13.35;;;14.40;99.90;;;;;;4941056;28;20109;-86
2021/10/04 01:45:16;;;;;;;17.38;15.63;;;14.30;99.90;;;;;;4939919;28;20050;-84
2021/10/04 01:47:43;;;;;;;16.85;14.35;;;14.30;99.90;;;;;;4941076;28;20109;-85
2021/10/04 01:50:12;;;;;;;18.67;13.85;;;14.30;99.90;;;;;;4942002;28;20054;-84
2021/10/04 01:52:40;;;;;;;16.48;14.77;;;14.30;99.90;;;;;;4941382;28;20109;-84
2021/10/04 01:55:09;;;;;;;18.70;15.82;;;14.30;99.90;;;;;;4907059;28;20077;-84
2021/10/04 01:57:36;;;;;;;16.92;14.98;;;14.30;99.90;;;;;;4941605;28;20050;-84
2021/10/04 02:00:08;;;;;;;16.60;14.00;;;14.30;99.90;;;;;;4942255;28;20115;-85
2021/10/04 02:02:39;;;;;;;16.45;14.70;;;14.30;99.90;;;;;;4926710;28;20796;-84
2021/10/04 02:05:21;;;;;;;19.98;14.85;;;14.30;99.90;;;;;;4921961;28;20046;-85
2021/10/04 02:07:52;;;;;;;19.55;15.35;;;14.30;99.90;;;;;;4907867;28;20475;-84
2021/10/04 02:10:23;;;;;;;18.40;14.88;;;14.30;99.90;;;;;;4941027;28;20533;-85
2021/10/04 02:12:50;;;;;;;18.40;16.35;;;14.30;99.90;;;;;;4909005;28;20093;-85
2021/10/04 02:15:26;;;;;;;22.67;15.65;;;14.30;99.90;;;;;;4913210;28;20082;-85
2021/10/04 02:17:53;;;;;;;18.40;14.05;;;14.20;99.90;;;;;;4934389;28;20054;-85
2021/10/04 02:20:24;;;;;;;24.52;15.75;;;14.20;99.90;;;;;;4928874;28;20461;-86
2021/10/04 02:22:55;;;;;;;19.95;16.02;;;14.20;99.90;;;;;;4919258;28;20043;-85
2021/10/04 02:25:34;;;;;;;19.30;15.27;;;14.20;99.90;;;;;;4872223;28;20042;-84
2021/10/04 02:28:08;;;;;;;17.75;14.38;;;14.20;99.90;;;;;;4916808;28;20512;-85
2021/10/04 02:30:36;;;;;;;17.40;14.85;;;14.20;99.90;;;;;;4911040;28;20047;-88
2021/10/04 02:33:04;;;;;;;19.23;14.77;;;14.20;99.90;;;;;;4937427;28;20050;-85
2021/10/04 02:36:05;;;;;;;24.60;16.42;;;14.20;99.90;;;;;;4918353;28;20061;-87
2021/10/04 02:38:35;;;;;;;17.67;15.77;;;14.20;99.90;;;;;;4916811;28;20346;-88
2021/10/04 02:41:04;;;;;;;16.38;14.68;;;14.20;99.90;;;;;;4929311;28;20487;-88
2021/10/04 02:43:33;;;;;;;20.88;16.30;;;14.20;99.90;;;;;;4944085;28;20096;-87
2021/10/04 02:46:00;;;;;;;17.63;15.73;;;14.20;99.90;;;;;;4960759;28;20047;-86
2021/10/04 02:48:27;;;;;;;19.77;15.25;;;14.20;99.90;;;;;;4960497;28;20191;-88
2021/10/04 02:50:54;;;;;;;19.98;15.10;;;14.20;99.90;;;;;;4957922;28;20481;-85
2021/10/04 02:53:21;;;;;;;20.33;15.88;;;14.20;99.90;;;;;;4941993;28;20058;-84
2021/10/04 02:55:48;;;;;;;18.35;15.50;;;14.20;99.90;;;;;;4959295;28;20070;-87
2021/10/04 02:58:15;;;;;;;22.27;15.30;;;14.20;99.90;;;;;;4960781;28;20109;-86
2021/10/04 03:00:42;;;;;;;18.50;16.38;;;14.10;99.90;;;;;;4958376;28;20042;-87
2021/10/04 03:03:09;;;;;;;18.98;15.90;;;14.10;99.90;;;;;;4959076;28;20125;-87
2021/10/04 03:05:38;;;;;;;20.25;15.90;;;14.10;99.90;;;;;;4942085;28;20066;-87
2021/10/04 03:08:07;;;;;;;22.42;17.67;;;14.10;99.90;;;;;;4960869;28;20046;-87
2021/10/04 03:10:35;;;;;;;26.45;17.20;;;14.10;99.90;;;;;;4942407;28;20062;-86
2021/10/04 03:13:04;;;;;;;20.25;15.75;;;14.10;99.90;;;;;;4957820;28;20496;-86
2021/10/04 03:15:31;;;;;;;34.20;17.33;;;14.10;99.90;;;;;;4951768;28;20069;-86
2021/10/04 03:17:58;;;;;;;18.98;14.85;;;14.10;99.90;;;;;;4926906;28;20065;-87
2021/10/04 03:20:25;;;;;;;29.95;18.35;;;14.10;99.90;;;;;;4927008;28;20077;-85
2021/10/04 03:22:54;;;;;;;18.40;14.73;;;14.00;99.90;;;;;;4959548;28;20089;-87
2021/10/04 03:25:23;;;;;;;17.63;14.25;;;14.10;99.90;;;;;;4958123;28;20042;-88
2021/10/04 03:27:50;;;;;;;20.55;15.82;;;14.00;99.90;;;;;;4942035;28;20054;-88
2021/10/04 03:30:29;;;;;;;18.13;15.73;;;14.00;99.90;;;;;;4942740;28;20585;-87
2021/10/04 03:32:58;;;;;;;;;;;14.00;99.90;;;;;;4940916;28;20042;-88
2021/10/04 03:35:25;;;;;;;22.95;15.82;;;14.00;99.90;;;;;;4942780;28;20382;-87
2021/10/04 03:37:52;;;;;;;18.55;16.55;;;14.10;99.90;;;;;;4941977;28;20069;-87
2021/10/04 03:40:31;;;;;;;19.40;16.45;;;14.00;99.90;;;;;;4942594;28;20050;-85
2021/10/04 03:43:44;;;;;;;21.92;15.88;;;14.00;99.90;;;;;;4936504;28;20053;-86
2021/10/04 03:46:11;;;;;;;23.95;16.90;;;14.00;99.90;;;;;;4943345;28;20065;-87
2021/10/04 03:48:38;;;;;;;28.60;18.05;;;14.00;99.90;;;;;;4964080;28;20105;-86
2021/10/04 03:51:08;;;;;;;24.05;15.25;;;14.00;99.90;;;;;;4945837;28;20061;-87
2021/10/04 03:53:37;;;;;;;16.55;14.88;;;14.00;99.90;;;;;;4932507;28;20057;-86
2021/10/04 03:56:05;;;;;;;19.98;17.58;;;14.00;99.90;;;;;;4936003;28;20042;-87
2021/10/04 03:58:32;;;;;;;21.55;15.63;;;14.00;99.90;;;;;;4963751;28;20176;-87
2021/10/04 04:00:59;;;;;;;25.48;16.23;;;14.00;99.90;;;;;;4958844;28;21226;-84
2021/10/04 04:03:26;;;;;;;18.55;16.05;;;14.00;99.90;;;;;;4963638;28;20463;-86
2021/10/04 04:05:53;;;;;;;20.80;16.48;;;14.00;99.90;;;;;;4930001;28;20042;-86
2021/10/04 04:08:21;;;;;;;21.45;15.88;;;14.00;99.90;;;;;;4960373;28;20058;-86
2021/10/04 04:10:48;;;;;;;22.40;16.60;;;14.00;99.90;;;;;;4961777;28;20054;-85
2021/10/04 04:13:15;;;;;;;17.90;15.07;;;14.00;99.90;;;;;;4943984;28;20042;-86
2021/10/04 04:15:42;;;;;;;19.15;15.52;;;14.00;99.90;;;;;;4960178;28;20054;-87
2021/10/04 04:18:10;;;;;;;19.42;15.50;;;14.00;99.90;;;;;;4945581;28;20522;-87
2021/10/04 04:20:37;;;;;;;19.95;14.35;;;14.00;99.90;;;;;;4962453;28;20046;-87
2021/10/04 04:23:03;;;;;;;16.67;15.00;;;14.00;99.90;;;;;;4959959;28;20503;-87
2021/10/04 04:25:30;;;;;;;26.02;16.23;;;14.00;99.90;;;;;;4960895;28;20108;-86
2021/10/04 04:28:00;;;;;;;24.58;15.02;;;14.00;99.90;;;;;;4958139;28;20100;-87
2021/10/04 04:30:28;;;;;;;20.15;16.95;;;14.00;99.90;;;;;;4959119;28;20144;-87
2021/10/04 04:32:55;;;;;;;23.52;16.90;;;13.90;99.90;;;;;;4942443;28;20210;-87
2021/10/04 04:35:22;;;;;;;26.88;16.13;;;14.00;99.90;;;;;;4948936;28;20124;-86
2021/10/04 04:37:49;;;;;;;20.40;17.40;;;14.00;99.90;;;;;;4939689;28;20050;-86
2021/10/04 04:40:18;;;;;;;17.92;15.57;;;14.00;99.90;;;;;;4942653;28;20128;-87
2021/10/04 04:42:46;;;;;;;16.65;14.23;;;14.00;99.90;;;;;;4959603;28;20085;-87
2021/10/04 04:45:17;;;;;;;16.65;14.68;;;14.00;99.90;;;;;;4956645;28;20081;-87
2021/10/04 04:47:46;;;;;;;18.48;16.67;;;14.00;99.90;;;;;;4957905;28;20139;-88
2021/10/04 04:50:19;;;;;;;17.17;14.85;;;14.00;99.90;;;;;;4946209;28;20042;-88
2021/10/04 04:52:46;;;;;;;21.95;16.52;;;13.90;99.90;;;;;;4943296;28;20368;-87
2021/10/04 04:55:13;;;;;;;20.77;17.17;;;13.90;99.90;;;;;;4945675;28;20054;-90
2021/10/04 04:57:41;;;;;;;22.52;16.25;;;14.00;99.90;;;;;;4926371;28;20114;-91
2021/10/04 05:00:10;;;;;;;19.52;16.13;;;13.90;99.90;;;;;;4943945;28;20129;-90
2021/10/04 05:02:44;;;;;;;19.13;15.13;;;13.90;99.90;;;;;;4958770;28;20457;-88
2021/10/04 05:05:37;;;;;;;16.95;15.20;;;13.90;99.90;;;;;;4948437;28;20055;-89
2021/10/04 05:08:04;;;;;;;22.17;17.30;;;13.90;99.90;;;;;;4927044;28;20082;-90
2021/10/04 05:10:31;;;;;;;27.40;16.75;;;13.90;99.90;;;;;;4958683;28;20480;-89
2021/10/04 05:12:58;;;;;;;22.25;15.02;;;13.90;99.90;;;;;;4905923;28;20050;-89
2021/10/04 05:15:27;;;;;;;17.85;14.20;;;13.90;99.90;;;;;;4942282;28;20133;-89
2021/10/04 05:17:54;;;;;;;19.80;16.20;;;14.00;99.90;;;;;;4922433;28;20057;-89
2021/10/04 05:20:21;;;;;;;17.90;16.02;;;13.90;99.90;;;;;;4959222;28;20116;-89
2021/10/04 05:22:48;;;;;;;18.60;16.00;;;13.90;99.90;;;;;;4957770;28;20177;-90
2021/10/04 05:25:15;;;;;;;20.23;15.68;;;13.90;99.90;;;;;;4918058;28;20513;-90
2021/10/04 05:27:42;;;;;;;16.95;14.95;;;13.90;99.90;;;;;;4926882;28;20204;-88
2021/10/04 05:30:10;;;;;;;17.77;15.73;;;13.90;99.90;;;;;;4957784;28;20092;-89
2021/10/04 05:32:38;;;;;;;21.63;15.85;;;13.90;99.90;;;;;;4943700;28;20046;-90
2021/10/04 05:35:08;;;;;;;18.60;15.32;;;13.90;99.90;;;;;;4954235;28;20054;-89
2021/10/04 05:37:36;;;;;;;21.40;17.60;;;13.90;99.90;;;;;;4955644;28;20502;-89
2021/10/04 05:40:04;;;;;;;20.80;15.10;;;13.90;99.90;;;;;;4958299;28;20085;-89
2021/10/04 05:42:32;;;;;;;25.02;15.60;;;14.00;99.90;;;;;;4943692;28;20582;-89
2021/10/04 05:45:00;;;;;;;18.85;13.85;;;14.00;99.90;;;;;;4941434;28;20065;-89
2021/10/04 05:47:28;;;;;;;17.77;15.10;;;14.00;99.90;;;;;;4959807;28;20416;-89
2021/10/04 05:49:55;;;;;;;20.30;15.50;;;14.00;99.90;;;;;;4953749;28;20054;-87
2021/10/04 05:52:22;;;;;;;23.60;16.38;;;14.00;99.90;;;;;;4950988;28;20129;-89
2021/10/04 05:54:49;;;;;;;20.83;16.45;;;14.00;99.90;;;;;;4943514;28;20116;-88
2021/10/04 05:57:16;;;;;;;19.42;15.18;;;14.00;99.90;;;;;;4956857;28;20121;-89
2021/10/04 05:59:43;;;;;;;25.73;15.70;;;14.10;99.90;;;;;;4942229;28;20753;-88
2021/10/04 06:02:10;;;;;;;22.25;15.68;;;14.10;99.90;;;;;;4948211;28;20586;-89
2021/10/04 06:04:37;;;;;;;19.23;14.65;;;14.20;99.90;;;;;;4958983;28;20046;-89
2021/10/04 06:07:04;;;;;;;19.42;15.10;;;14.20;99.90;;;;;;4940975;28;20085;-87
2021/10/04 06:09:31;;;;;;;19.23;15.48;;;14.20;99.90;;;;;;4957617;28;20092;-88
2021/10/04 06:11:57;;;;;;;21.20;16.52;;;14.20;99.90;;;;;;4957910;28;20070;-89
2021/10/04 06:14:25;;;;;;;19.13;14.63;;;14.20;99.90;;;;;;4958702;28;20141;-89
2021/10/04 06:16:53;;;;;;;23.50;15.82;;;14.20;99.90;;;;;;4958782;28;20048;-88
2021/10/04 06:19:20;;;;;;;19.90;16.13;;;14.20;99.90;;;;;;4940691;28;20050;-89
2021/10/04 06:21:48;;;;;;;21.20;16.05;;;14.30;99.90;;;;;;4941228;28;20095;-89
2021/10/04 06:24:15;;;;;;;17.88;16.00;;;14.30;99.90;;;;;;4927468;28;20058;-89
2021/10/04 06:26:42;;;;;;;22.75;16.17;;;14.30;99.90;;;;;;4941222;28;20153;-87
2021/10/04 06:29:09;;;;;;;18.98;15.75;;;14.30;99.90;;;;;;4940673;28;20125;-89
2021/10/04 06:31:36;;;;;;;22.15;15.27;;;14.30;99.90;;;;;;4959908;28;20073;-89
2021/10/04 06:34:03;;;;;;;20.80;17.35;;;14.30;99.90;;;;;;4960533;28;20488;-87
2021/10/04 06:36:30;;;;;;;17.00;14.52;;;14.30;99.90;;;;;;4935659;28;20093;-88
2021/10/04 06:38:57;;;;;;;24.77;16.23;;;14.40;99.90;;;;;;4911433;28;22073;-89
2021/10/04 06:41:24;;;;;;;25.17;16.55;;;14.40;99.90;;;;;;4948826;28;20050;-89
2021/10/04 06:43:51;;;;;;;22.85;15.50;;;14.40;99.90;;;;;;4953047;28;21386;-88
2021/10/04 06:46:19;;;;;;;18.67;16.75;;;14.40;99.90;;;;;;4978771;28;20115;-88
2021/10/04 06:48:46;;;;;;;19.52;15.13;;;14.40;99.90;;;;;;4977759;28;20145;-89
2021/10/04 06:51:13;;;;;;;23.02;16.65;;;14.40;99.90;;;;;;4977597;28;20054;-88
2021/10/04 06:53:40;;;;;;;16.13;13.38;;;14.50;99.90;;;;;;4978965;28;20046;-88
2021/10/04 06:56:08;;;;;;;22.38;16.38;;;14.50;99.90;;;;;;4962561;28;20070;-88
2021/10/04 06:58:35;;;;;;;23.40;17.17;;;14.50;99.90;;;;;;4960408;28;20049;-88
2021/10/04 07:01:02;;;;;;;21.88;15.55;;;14.60;99.90;;;;;;4978340;28;20078;-86
2021/10/04 07:03:29;;;;;;;21.45;15.07;;;14.60;99.90;;;;;;4981567;28;20097;-86
2021/10/04 07:05:59;;;;;;;20.30;16.23;;;14.60;99.90;;;;;;4962577;28;20076;-87
2021/10/04 07:08:26;;;;;;;23.45;16.67;;;14.70;99.90;;;;;;4979706;28;20046;-87
2021/10/04 07:10:53;;;;;;;20.27;15.63;;;14.80;99.90;;;;;;4979074;28;20038;-87
2021/10/04 07:13:20;;;;;;;21.55;16.17;;;14.70;99.90;;;;;;4995031;28;20045;-87
2021/10/04 07:15:48;;;;;;;21.98;15.52;;;14.80;99.90;;;;;;4989221;28;20169;-87
2021/10/04 07:18:16;;;;;;;26.83;15.88;;;14.80;99.90;;;;;;5002652;28;20491;-87
2021/10/04 07:20:43;;;;;;;18.38;15.02;;;14.80;99.90;;;;;;4990455;28;20470;-86
2021/10/04 07:23:10;;;;;;;17.23;13.88;;;14.80;99.90;;;;;;4984803;28;20057;-86
2021/10/04 07:25:38;;;;;;;19.02;14.75;;;14.90;99.90;;;;;;4988842;28;20140;-85
2021/10/04 07:28:05;;;;;;;19.85;13.82;;;15.00;99.90;;;;;;5006532;28;20097;-87
2021/10/04 07:30:34;;;;;;;17.25;13.82;;;15.00;99.90;;;;;;5005702;28;20041;-87
2021/10/04 07:33:03;;;;;;;20.88;16.20;;;15.10;99.90;;;;;;5001021;28;20056;-87
2021/10/04 07:35:31;;;;;;;19.20;14.32;;;15.10;99.90;;;;;;5005213;28;20591;-89
2021/10/04 07:37:59;;;;;;;15.70;13.98;;;15.10;99.90;;;;;;4984567;28;20064;-89
2021/10/04 07:40:27;;;;;;;20.55;14.77;;;15.20;99.90;;;;;;5003263;28;20144;-89
2021/10/04 07:42:54;;;;;;;17.08;13.88;;;15.20;99.90;;;;;;4989619;28;20105;-89
2021/10/04 07:45:21;;;;;;;20.27;15.48;;;15.10;99.90;;;;;;4977284;28;21377;-89
2021/10/04 07:47:48;;;;;;;20.65;13.98;;;15.10;99.90;;;;;;4992295;28;20049;-89
2021/10/04 07:50:15;;;;;;;22.88;14.77;;;15.10;99.90;;;;;;4972591;28;20100;-89
2021/10/04 07:52:44;;;;;;;21.30;15.50;;;15.10;99.90;;;;;;4991436;28;20160;-89
2021/10/04 07:55:11;;;;;;;18.45;14.02;;;15.10;99.90;;;;;;4986363;28;20097;-89
2021/10/04 07:57:39;;;;;;;15.93;13.95;;;15.00;99.90;;;;;;4993280;28;20038;-89
2021/10/04 08:00:07;;;;;;;22.00;13.48;;;15.10;99.90;;;;;;4993992;28;20156;-89
2021/10/04 08:02:40;;;;;;;17.75;14.35;;;15.10;99.90;;;;;;4989605;28;20042;-89
2021/10/04 08:05:10;;;;;;;16.60;13.63;;;15.10;99.90;;;;;;4970900;28;20042;-88
2021/10/04 08:07:37;;;;;;;17.17;14.00;;;15.10;99.90;;;;;;4969301;28;20100;-89
2021/10/04 08:10:07;;;;;;;16.48;14.85;;;15.20;99.90;;;;;;5004854;28;20057;-89
2021/10/04 08:12:34;;;;;;;17.87;13.87;;;15.20;99.90;;;;;;5003449;28;20042;-89
2021/10/04 08:15:04;;;;;;;17.83;15.48;;;15.30;99.90;;;;;;4992158;28;20120;-89
2021/10/04 08:17:31;;;;;;;16.98;15.15;;;15.40;99.90;;;;;;4989087;28;20053;-89
2021/10/04 08:19:59;;;;;;;19.98;14.65;;;15.40;99.90;;;;;;4982397;28;20045;-89
2021/10/04 08:22:27;;;;;;;22.73;16.15;;;15.50;99.90;;;;;;4989982;28;20484;-89
2021/10/04 08:24:54;;;;;;;16.40;13.85;;;15.50;99.90;;;;;;4978402;28;20463;-89
2021/10/04 08:27:21;;;;;;;15.52;13.93;;;15.50;99.90;;;;;;4982441;28;20080;-90
2021/10/04 08:29:51;;;;;;;19.15;15.60;;;15.60;99.90;;;;;;5002179;28;20057;-87
2021/10/04 08:32:21;;;;;;;16.10;13.15;;;15.70;99.90;;;;;;4993599;28;20090;-89
2021/10/04 08:34:48;;;;;;;15.32;13.80;;;15.70;99.90;;;;;;4988177;28;20069;-89
2021/10/04 08:37:14;;;;;;;18.60;15.55;;;15.80;99.90;;;;;;4984820;28;20495;-89
2021/10/04 08:39:41;;;;;;;15.35;13.40;;;15.90;99.90;;;;;;4990812;28;20045;-88
2021/10/04 08:42:09;;;;;;;20.83;15.00;;;15.90;99.90;;;;;;5002114;28;20052;-89
2021/10/04 08:44:39;;;;;;;16.90;14.90;;;16.00;99.90;;;;;;5003062;28;20400;-88
2021/10/04 08:47:07;;;;;;;16.83;13.03;;;16.00;99.90;;;;;;4998836;28;20676;-88
2021/10/04 08:49:34;;;;;;;16.50;13.80;;;16.00;99.90;;;;;;5005936;28;20284;-87
2021/10/04 08:52:02;;;;;;;23.55;16.17;;;16.00;99.90;;;;;;5002661;28;20116;-87
2021/10/04 08:54:32;;;;;;;16.83;13.68;;;16.00;99.90;;;;;;4988424;28;20100;-87
2021/10/04 08:56:59;;;;;;;17.98;13.82;;;16.00;99.90;;;;;;4967534;28;20049;-87
2021/10/04 08:59:28;;;;;;;14.90;13.25;;;16.00;99.90;;;;;;5001539;28;20046;-87
2021/10/04 09:02:31;;;;;;;15.80;12.55;;;16.10;99.90;;;;;;4988971;28;20049;-87
2021/10/04 09:05:10;;;;;;;15.95;12.90;;;16.10;99.90;;;;;;4987750;28;20350;-87
2021/10/04 09:08:06;;;;;;;17.40;15.20;;;16.10;99.90;;;;;;4988974;28;20042;-88
2021/10/04 09:10:38;;;;;;;18.90;13.50;;;16.20;99.90;;;;;;4995084;28;20049;-86
2021/10/04 09:13:10;;;;;;;16.70;12.82;;;16.20;99.90;;;;;;4987457;28;20056;-86
2021/10/04 09:15:44;;;;;;;15.52;13.93;;;16.20;99.90;;;;;;4998991;28;20052;-87
2021/10/04 09:18:27;;;;;;;17.25;12.77;;;16.20;99.90;;;;;;4968991;28;20105;-87
2021/10/04 09:21:10;;;;;;;14.07;12.13;;;16.30;99.90;;;;;;4974737;28;20165;-87
2021/10/04 09:23:56;;;;;;;20.95;13.73;;;16.30;99.90;;;;;;4990115;28;20062;-87
2021/10/04 09:26:26;;;;;;;15.13;12.95;;;16.30;99.90;;;;;;4924090;28;20081;-87
2021/10/04 09:29:00;;;;;;;16.95;15.13;;;16.40;99.90;;;;;;4965798;28;20130;-87
2021/10/04 09:31:30;;;;;;;18.77;14.15;;;16.40;99.90;;;;;;4976793;28;20141;-87
2021/10/04 09:34:26;;;;;;;16.20;13.43;;;16.50;99.90;;;;;;4962575;28;20096;-87
2021/10/04 09:37:00;;;;;;;17.70;13.93;;;16.50;99.90;;;;;;4942491;28;20064;-87
2021/10/04 09:39:30;;;;;;;17.75;13.65;;;16.50;99.90;;;;;;4979204;28;20050;-88
2021/10/04 09:42:08;;;;;;;15.38;13.20;;;16.40;99.90;;;;;;4979285;28;20129;-87
2021/10/04 09:45:14;;;;;;;14.57;13.15;;;16.40;99.90;;;;;;4978537;28;20049;-87
2021/10/04 09:48:20;;;;;;;15.52;13.90;;;16.50;99.90;;;;;;4971839;28;20415;-87
2021/10/04 09:50:47;;;;;;;16.65;13.90;;;16.40;99.90;;;;;;4980714;28;20049;-87
2021/10/04 09:53:15;;;;;;;17.85;14.40;;;16.50;99.90;;;;;;4979585;28;20460;-87
2021/10/04 09:55:45;;;;;;;15.82;13.63;;;16.50;99.90;;;;;;4978735;28;20062;-86
2021/10/04 09:58:16;;;;;;;19.20;13.45;;;16.40;99.90;;;;;;4976182;28;20050;-87
2021/10/04 10:00:52;;;;;;;16.80;14.20;;;16.50;99.90;;;;;;4988260;28;20052;-88
2021/10/04 10:04:20;;;;;;;;;;;;;;;;;;;;;
2021/10/04 10:07:46;;;;;;;17.45;13.10;;;16.50;99.90;;;;;;4984281;28;20407;-90
2021/10/04 10:10:34;;;;;;;18.52;15.80;;;16.60;99.90;;;;;;4989255;28;20058;-88
2021/10/04 10:13:01;;;;;;;16.25;13.32;;;16.60;99.90;;;;;;5003364;28;20454;-88
2021/10/04 10:15:30;;;;;;;15.20;13.43;;;16.60;99.90;;;;;;4983964;28;20052;-87
2021/10/04 10:18:12;;;;;;;18.00;16.00;;;16.60;99.90;;;;;;4999602;28;20108;-87
2021/10/04 10:20:42;;;;;;;18.00;16.15;;;16.50;99.90;;;;;;4986894;28;20053;-87
2021/10/04 10:23:09;;;;;;;17.30;14.63;;;16.40;99.90;;;;;;4999891;28;20100;-87
2021/10/04 10:25:42;;;;;;;16.52;14.68;;;16.40;99.90;;;;;;5003188;28;20049;-87
2021/10/04 10:28:29;;;;;;;17.08;14.88;;;16.30;99.90;;;;;;5001578;28;20096;-86
2021/10/04 10:30:56;;;;;;;15.60;13.73;;;16.40;99.90;;;;;;5001567;28;20104;-86
2021/10/04 10:33:44;;;;;;;17.15;15.38;;;16.40;99.90;;;;;;4987883;28;20522;-87
2021/10/04 10:36:13;;;;;;;20.70;15.13;;;16.40;99.90;;;;;;4993971;28;20073;-87
2021/10/04 10:39:10;;;;;;;20.92;16.70;;;16.40;99.90;;;;;;5000398;28;20089;-87
2021/10/04 10:41:37;;;;;;;18.33;15.82;;;16.30;99.90;;;;;;4976961;28;20144;-87
2021/10/04 10:44:09;;;;;;;21.30;14.52;;;16.30;99.90;;;;;;4996604;28;20102;-87
2021/10/04 10:46:48;;;;;;;18.15;13.65;;;16.30;99.90;;;;;;4988440;28;20050;-86
2021/10/04 10:49:53;;;;;;;18.85;14.98;;;16.30;99.90;;;;;;4981095;28;20451;-87
2021/10/04 10:52:22;;;;;;;21.38;15.82;;;16.30;99.90;;;;;;4995961;28;20783;-89
2021/10/04 10:54:52;;;;;;;21.35;16.27;;;16.30;99.90;;;;;;4997785;28;20446;-89
2021/10/04 10:57:24;;;;;;;16.80;15.07;;;16.20;99.90;;;;;;5002043;28;20120;-89
2021/10/04 11:00:26;;;;;;;17.90;14.77;;;16.30;99.90;;;;;;5004403;28;20543;-89
2021/10/04 11:03:04;;;;;;;18.30;15.30;;;16.40;99.90;;;;;;5006426;28;20046;-89
2021/10/04 11:05:37;;;;;;;15.65;13.27;;;16.40;99.90;;;;;;4986400;28;20133;-89
2021/10/04 11:08:11;;;;;;;17.65;13.48;;;16.40;99.90;;;;;;5008257;28;20045;-89
2021/10/04 11:10:55;;;;;;;21.95;15.07;;;16.50;99.90;;;;;;4970535;28;20149;-89
2021/10/04 11:13:38;;;;;;;15.43;13.82;;;16.50;99.90;;;;;;4988405;28;20104;-89
2021/10/04 11:16:06;;;;;;;24.48;16.55;;;16.50;99.90;;;;;;4966509;28;20046;-89
2021/10/04 11:18:41;;;;;;;16.80;13.23;;;16.50;99.90;;;;;;4969213;28;20050;-89
2021/10/04 11:21:11;;;;;;;17.13;15.38;;;16.50;99.90;;;;;;5008487;28;20533;-89
2021/10/04 11:23:45;;;;;;;23.63;15.38;;;16.60;99.90;;;;;;5005234;28;20050;-89
2021/10/04 11:26:18;;;;;;;19.17;14.15;;;16.60;99.90;;;;;;5010102;28;20053;-89
2021/10/04 11:28:50;;;;;;;15.45;13.85;;;16.60;99.90;;;;;;4954570;28;20530;-89
2021/10/04 11:31:25;;;;;;;16.30;13.85;;;16.60;99.90;;;;;;437490;28;10022725;-89
2021/10/04 11:33:58;;;;;;;15.65;14.13;;;16.60;99.90;;;;;;4990220;28;20355;-87
2021/10/04 11:36:35;;;;;;;17.55;14.52;;;16.60;99.90;;;;;;4993266;28;20573;-87
2021/10/04 11:39:31;;;;;;;15.65;14.10;;;16.60;99.90;;;;;;5006645;28;20052;-87
2021/10/04 11:42:04;;;;;;;23.17;15.98;;;16.60;99.90;;;;;;4984017;28;20427;-87
2021/10/04 11:44:33;;;;;;;19.45;14.15;;;16.60;99.90;;;;;;4987799;28;20037;-87
2021/10/04 11:47:06;;;;;;;16.23;14.65;;;16.60;99.90;;;;;;5003552;28;20049;-87
2021/10/04 11:49:41;;;;;;;21.63;15.45;;;16.60;99.90;;;;;;5008290;28;20054;-87
2021/10/04 11:52:15;;;;;;;16.90;14.18;;;16.50;99.90;;;;;;4991439;28;20581;-87
2021/10/04 11:54:50;;;;;;;18.70;14.93;;;16.50;99.90;;;;;;5007742;28;20107;-87
2021/10/04 11:57:21;;;;;;;15.68;13.80;;;16.40;99.90;;;;;;5000328;28;20061;-86
2021/10/04 12:00:01;;;;;;;15.23;13.68;;;16.30;99.90;;;;;;4990678;28;20050;-87
2021/10/04 12:02:40;;;;;;;16.08;13.80;;;16.30;99.90;;;;;;4980592;28;20052;-87
2021/10/04 12:05:20;;;;;;;16.00;14.18;;;16.20;99.90;;;;;;4984040;28;20089;-87
2021/10/04 12:08:09;;;;;;;16.20;14.63;;;16.10;99.90;;;;;;4977575;28;20043;-88
2021/10/04 12:10:46;;;;;;;18.63;15.18;;;16.00;99.90;;;;;;5001823;28;20152;-87
2021/10/04 12:13:19;;;;;;;19.40;15.65;;;16.00;99.90;;;;;;5001812;28;20092;-88
2021/10/04 12:15:48;;;;;;;22.65;16.45;;;15.90;99.90;;;;;;4998512;28;20141;-90
2021/10/04 12:18:19;;;;;;;19.92;15.73;;;15.80;99.90;;;;;;4996201;28;20108;-90
2021/10/04 12:20:50;;;;;;;21.92;16.20;;;15.80;99.90;;;;;;5009677;28;20176;-90
2021/10/04 12:23:21;;;;;;;20.63;15.60;;;15.70;99.90;;;;;;5005204;28;20053;-90
2021/10/04 12:25:50;;;;;;;17.73;15.77;;;15.60;99.90;;;;;;4983964;28;20077;-90
2021/10/04 12:28:19;;;;;;;17.23;14.95;;;15.60;99.90;;;;;;5000749;28;20058;-90
2021/10/04 12:30:55;;;;;;;21.98;18.83;;;15.60;99.90;;;;;;4966816;28;20053;-89
2021/10/04 12:33:46;;;;;;;20.73;16.65;;;15.50;99.90;;;;;;4961395;28;20042;-89
2021/10/04 12:36:13;;;;;;;19.60;17.50;;;15.50;99.90;;;;;;4997356;28;20061;-89
2021/10/04 12:38:58;;;;;;;19.27;17.17;;;15.40;99.90;;;;;;5001807;28;20575;-89
2021/10/04 12:41:39;;;;;;;20.13;18.15;;;15.30;99.90;;;;;;4995356;28;20049;-89
2021/10/04 12:44:15;;;;;;;19.25;17.27;;;15.30;99.90;;;;;;4996671;28;20047;-89
2021/10/04 12:47:05;;;;;;;21.73;18.00;;;15.30;99.90;;;;;;5002740;28;20069;-89
2021/10/04 12:53:18;;;;;;;20.75;18.38;;;15.30;99.90;;;;;;4997494;28;20058;-89